sensor_id;sensor_type;location;lat;lon;timestamp;P1;durP1;ratioP1;P2;durP2;ratioP2
80193;SDS011;69515;42.072;21.504;2024-01-11T00:01:59;27.60;;;16.10;;
80193;SDS011;69515;42.072;21.504;2024-01-11T00:04:25;27.85;;;15.20;;
80193;SDS011;69515;42.072;21.504;2024-01-11T00:06:51;27.20;;;15.70;;
80193;SDS011;69515;42.072;21.504;2024-01-11T00:11:44;26.75;;;14.30;;
80193;SDS011;69515;42.072;21.504;2024-01-11T00:14:10;29.30;;;16.55;;
80193;SDS011;69515;42.072;21.504;2024-01-11T00:16:36;26.00;;;14.18;;
80193;SDS011;69515;42.072;21.504;2024-01-11T00:19:02;27.88;;;15.60;;
80193;SDS011;69515;42.072;21.504;2024-01-11T00:21:29;26.35;;;15.00;;
80193;SDS011;69515;42.072;21.504;2024-01-11T00:23:55;23.67;;;14.02;;
80193;SDS011;69515;42.072;21.504;2024-01-11T00:26:21;26.33;;;14.70;;
80193;SDS011;69515;42.072;21.504;2024-01-11T00:28:47;25.60;;;14.18;;
80193;SDS011;69515;42.072;21.504;2024-01-11T00:31:14;27.30;;;16.00;;
80193;SDS011;69515;42.072;21.504;2024-01-11T00:36:06;26.73;;;15.07;;
80193;SDS011;69515;42.072;21.504;2024-01-11T00:38:33;24.38;;;14.90;;
80193;SDS011;69515;42.072;21.504;2024-01-11T00:40:59;34.47;;;14.60;;
80193;SDS011;69515;42.072;21.504;2024-01-11T00:43:25;25.40;;;14.02;;
80193;SDS011;69515;42.072;21.504;2024-01-11T00:45:52;26.65;;;14.80;;
80193;SDS011;69515;42.072;21.504;2024-01-11T00:48:18;28.05;;;14.85;;
80193;SDS011;69515;42.072;21.504;2024-01-11T00:50:44;24.65;;;13.30;;
80193;SDS011;69515;42.072;21.504;2024-01-11T00:53:10;30.52;;;16.60;;
80193;SDS011;69515;42.072;21.504;2024-01-11T00:55:39;27.70;;;17.15;;
80193;SDS011;69515;42.072;21.504;2024-01-11T00:58:05;29.15;;;17.08;;
80193;SDS011;69515;42.072;21.504;2024-01-11T01:00:31;29.77;;;17.10;;
80193;SDS011;69515;42.072;21.504;2024-01-11T01:02:58;31.40;;;17.63;;
80193;SDS011;69515;42.072;21.504;2024-01-11T01:05:24;27.67;;;16.38;;
80193;SDS011;69515;42.072;21.504;2024-01-11T01:07:50;24.17;;;14.88;;
80193;SDS011;69515;42.072;21.504;2024-01-11T01:10:17;28.30;;;15.77;;
80193;SDS011;69515;42.072;21.504;2024-01-11T01:12:44;30.70;;;16.73;;
80193;SDS011;69515;42.072;21.504;2024-01-11T01:15:10;27.67;;;15.30;;
80193;SDS011;69515;42.072;21.504;2024-01-11T01:17:36;30.67;;;17.25;;
80193;SDS011;69515;42.072;21.504;2024-01-11T01:22:29;28.30;;;15.98;;
80193;SDS011;69515;42.072;21.504;2024-01-11T01:24:55;26.90;;;15.98;;
80193;SDS011;69515;42.072;21.504;2024-01-11T01:27:21;28.20;;;15.27;;
80193;SDS011;69515;42.072;21.504;2024-01-11T01:29:47;31.77;;;16.10;;
80193;SDS011;69515;42.072;21.504;2024-01-11T01:32:13;27.63;;;16.20;;
80193;SDS011;69515;42.072;21.504;2024-01-11T01:34:40;26.58;;;14.50;;
80193;SDS011;69515;42.072;21.504;2024-01-11T01:37:06;26.63;;;15.75;;
80193;SDS011;69515;42.072;21.504;2024-01-11T01:39:32;27.40;;;16.65;;
80193;SDS011;69515;42.072;21.504;2024-01-11T01:41:58;27.23;;;16.25;;
80193;SDS011;69515;42.072;21.504;2024-01-11T01:44:24;27.83;;;16.55;;
80193;SDS011;69515;42.072;21.504;2024-01-11T01:46:51;26.10;;;15.65;;
80193;SDS011;69515;42.072;21.504;2024-01-11T01:49:18;26.58;;;16.23;;
80193;SDS011;69515;42.072;21.504;2024-01-11T01:51:47;29.77;;;17.05;;
80193;SDS011;69515;42.072;21.504;2024-01-11T01:54:13;32.25;;;18.48;;
80193;SDS011;69515;42.072;21.504;2024-01-11T01:56:40;26.85;;;16.88;;
80193;SDS011;69515;42.072;21.504;2024-01-11T01:59:06;30.23;;;16.83;;
80193;SDS011;69515;42.072;21.504;2024-01-11T02:01:35;28.52;;;16.42;;
80193;SDS011;69515;42.072;21.504;2024-01-11T02:04:02;29.73;;;16.20;;
80193;SDS011;69515;42.072;21.504;2024-01-11T02:08:55;26.25;;;15.77;;
80193;SDS011;69515;42.072;21.504;2024-01-11T02:11:22;27.65;;;15.55;;
80193;SDS011;69515;42.072;21.504;2024-01-11T02:13:49;31.45;;;16.52;;
80193;SDS011;69515;42.072;21.504;2024-01-11T02:16:15;26.27;;;15.20;;
80193;SDS011;69515;42.072;21.504;2024-01-11T02:18:42;26.40;;;16.20;;
80193;SDS011;69515;42.072;21.504;2024-01-11T02:21:08;26.70;;;14.82;;
80193;SDS011;69515;42.072;21.504;2024-01-11T02:23:36;25.35;;;15.27;;
80193;SDS011;69515;42.072;21.504;2024-01-11T02:26:06;26.05;;;14.30;;
80193;SDS011;69515;42.072;21.504;2024-01-11T02:28:32;28.25;;;16.30;;
80193;SDS011;69515;42.072;21.504;2024-01-11T02:30:59;24.90;;;15.63;;
80193;SDS011;69515;42.072;21.504;2024-01-11T02:33:25;29.65;;;16.40;;
80193;SDS011;69515;42.072;21.504;2024-01-11T02:35:51;28.48;;;16.02;;
80193;SDS011;69515;42.072;21.504;2024-01-11T02:38:17;27.27;;;16.40;;
80193;SDS011;69515;42.072;21.504;2024-01-11T02:40:43;27.92;;;16.05;;
80193;SDS011;69515;42.072;21.504;2024-01-11T02:43:10;28.48;;;15.80;;
80193;SDS011;69515;42.072;21.504;2024-01-11T02:45:37;26.95;;;15.35;;
80193;SDS011;69515;42.072;21.504;2024-01-11T02:50:29;31.02;;;15.82;;
80193;SDS011;69515;42.072;21.504;2024-01-11T02:52:55;24.35;;;14.50;;
80193;SDS011;69515;42.072;21.504;2024-01-11T02:55:21;24.83;;;14.15;;
80193;SDS011;69515;42.072;21.504;2024-01-11T02:57:48;27.52;;;14.52;;
80193;SDS011;69515;42.072;21.504;2024-01-11T03:00:14;24.48;;;14.18;;
80193;SDS011;69515;42.072;21.504;2024-01-11T03:02:40;25.73;;;14.45;;
80193;SDS011;69515;42.072;21.504;2024-01-11T03:05:06;21.25;;;12.60;;
80193;SDS011;69515;42.072;21.504;2024-01-11T03:07:32;24.98;;;13.07;;
80193;SDS011;69515;42.072;21.504;2024-01-11T03:09:59;23.83;;;14.02;;
80193;SDS011;69515;42.072;21.504;2024-01-11T03:12:45;22.45;;;13.13;;
80193;SDS011;69515;42.072;21.504;2024-01-11T03:15:14;25.08;;;13.55;;
80193;SDS011;69515;42.072;21.504;2024-01-11T03:17:40;23.40;;;13.77;;
80193;SDS011;69515;42.072;21.504;2024-01-11T03:20:06;20.63;;;12.07;;
80193;SDS011;69515;42.072;21.504;2024-01-11T03:22:33;21.38;;;12.98;;
80193;SDS011;69515;42.072;21.504;2024-01-11T03:24:59;22.02;;;12.40;;
80193;SDS011;69515;42.072;21.504;2024-01-11T03:27:25;20.95;;;12.23;;
80193;SDS011;69515;42.072;21.504;2024-01-11T03:29:51;18.92;;;11.70;;
80193;SDS011;69515;42.072;21.504;2024-01-11T03:32:18;19.30;;;11.60;;
80193;SDS011;69515;42.072;21.504;2024-01-11T03:34:44;22.02;;;11.38;;
80193;SDS011;69515;42.072;21.504;2024-01-11T03:37:10;21.40;;;11.75;;
80193;SDS011;69515;42.072;21.504;2024-01-11T03:39:36;22.95;;;12.32;;
80193;SDS011;69515;42.072;21.504;2024-01-11T03:42:02;21.92;;;12.20;;
80193;SDS011;69515;42.072;21.504;2024-01-11T03:44:30;17.27;;;10.68;;
80193;SDS011;69515;42.072;21.504;2024-01-11T03:46:56;22.42;;;11.85;;
80193;SDS011;69515;42.072;21.504;2024-01-11T03:49:22;20.40;;;10.40;;
80193;SDS011;69515;42.072;21.504;2024-01-11T03:54:15;19.15;;;10.90;;
80193;SDS011;69515;42.072;21.504;2024-01-11T03:56:41;19.52;;;10.52;;
80193;SDS011;69515;42.072;21.504;2024-01-11T03:59:07;18.13;;;10.40;;
80193;SDS011;69515;42.072;21.504;2024-01-11T04:01:33;16.80;;;10.18;;
80193;SDS011;69515;42.072;21.504;2024-01-11T04:04:00;15.73;;;9.00;;
80193;SDS011;69515;42.072;21.504;2024-01-11T04:06:26;17.95;;;10.60;;
80193;SDS011;69515;42.072;21.504;2024-01-11T04:08:52;17.95;;;10.43;;
80193;SDS011;69515;42.072;21.504;2024-01-11T04:11:19;17.42;;;9.70;;
80193;SDS011;69515;42.072;21.504;2024-01-11T04:13:46;24.23;;;12.98;;
80193;SDS011;69515;42.072;21.504;2024-01-11T04:16:12;23.92;;;13.30;;
80193;SDS011;69515;42.072;21.504;2024-01-11T04:18:38;25.85;;;13.93;;
80193;SDS011;69515;42.072;21.504;2024-01-11T04:21:04;31.23;;;14.35;;
80193;SDS011;69515;42.072;21.504;2024-01-11T04:23:30;25.95;;;13.10;;
80193;SDS011;69515;42.072;21.504;2024-01-11T04:25:57;18.55;;;10.60;;
80193;SDS011;69515;42.072;21.504;2024-01-11T04:28:23;20.55;;;11.63;;
80193;SDS011;69515;42.072;21.504;2024-01-11T04:30:49;19.48;;;11.57;;
80193;SDS011;69515;42.072;21.504;2024-01-11T04:33:15;22.65;;;12.10;;
80193;SDS011;69515;42.072;21.504;2024-01-11T04:35:41;21.17;;;11.80;;
80193;SDS011;69515;42.072;21.504;2024-01-11T04:38:07;20.90;;;13.07;;
80193;SDS011;69515;42.072;21.504;2024-01-11T04:40:33;20.73;;;12.40;;
80193;SDS011;69515;42.072;21.504;2024-01-11T04:43:00;24.27;;;11.45;;
80193;SDS011;69515;42.072;21.504;2024-01-11T04:45:28;22.80;;;12.23;;
80193;SDS011;69515;42.072;21.504;2024-01-11T04:47:54;20.88;;;12.30;;
80193;SDS011;69515;42.072;21.504;2024-01-11T04:52:46;23.77;;;12.80;;
80193;SDS011;69515;42.072;21.504;2024-01-11T04:55:12;25.27;;;12.88;;
80193;SDS011;69515;42.072;21.504;2024-01-11T04:57:39;24.20;;;13.32;;
80193;SDS011;69515;42.072;21.504;2024-01-11T05:00:05;24.52;;;14.02;;
80193;SDS011;69515;42.072;21.504;2024-01-11T05:02:31;22.70;;;13.45;;
80193;SDS011;69515;42.072;21.504;2024-01-11T05:04:59;25.52;;;13.38;;
80193;SDS011;69515;42.072;21.504;2024-01-11T05:07:26;21.42;;;12.85;;
80193;SDS011;69515;42.072;21.504;2024-01-11T05:09:53;21.20;;;11.98;;
80193;SDS011;69515;42.072;21.504;2024-01-11T05:12:19;19.80;;;11.80;;
80193;SDS011;69515;42.072;21.504;2024-01-11T05:14:45;19.65;;;11.50;;
80193;SDS011;69515;42.072;21.504;2024-01-11T05:17:11;20.05;;;10.55;;
80193;SDS011;69515;42.072;21.504;2024-01-11T05:19:37;20.73;;;10.07;;
80193;SDS011;69515;42.072;21.504;2024-01-11T05:22:04;18.65;;;9.80;;
80193;SDS011;69515;42.072;21.504;2024-01-11T05:24:30;20.42;;;10.25;;
80193;SDS011;69515;42.072;21.504;2024-01-11T05:26:56;19.60;;;10.00;;
80193;SDS011;69515;42.072;21.504;2024-01-11T05:29:23;15.52;;;9.10;;
80193;SDS011;69515;42.072;21.504;2024-01-11T05:31:49;15.10;;;8.30;;
80193;SDS011;69515;42.072;21.504;2024-01-11T05:34:15;17.67;;;8.40;;
80193;SDS011;69515;42.072;21.504;2024-01-11T05:36:41;16.73;;;9.00;;
80193;SDS011;69515;42.072;21.504;2024-01-11T05:39:07;18.25;;;10.32;;
80193;SDS011;69515;42.072;21.504;2024-01-11T05:41:34;23.08;;;12.02;;
80193;SDS011;69515;42.072;21.504;2024-01-11T05:44:00;19.95;;;10.75;;
80193;SDS011;69515;42.072;21.504;2024-01-11T05:46:26;18.23;;;10.27;;
80193;SDS011;69515;42.072;21.504;2024-01-11T05:48:52;16.42;;;10.43;;
80193;SDS011;69515;42.072;21.504;2024-01-11T05:51:18;20.15;;;11.43;;
80193;SDS011;69515;42.072;21.504;2024-01-11T05:53:44;22.08;;;11.88;;
80193;SDS011;69515;42.072;21.504;2024-01-11T05:56:11;21.30;;;12.65;;
80193;SDS011;69515;42.072;21.504;2024-01-11T05:58:37;17.63;;;10.27;;
80193;SDS011;69515;42.072;21.504;2024-01-11T06:01:03;25.45;;;13.93;;
80193;SDS011;69515;42.072;21.504;2024-01-11T06:05:59;21.42;;;12.38;;
80193;SDS011;69515;42.072;21.504;2024-01-11T06:10:51;22.13;;;12.50;;
80193;SDS011;69515;42.072;21.504;2024-01-11T06:13:18;31.38;;;15.80;;
80193;SDS011;69515;42.072;21.504;2024-01-11T06:15:44;29.80;;;15.40;;
80193;SDS011;69515;42.072;21.504;2024-01-11T06:18:10;22.35;;;11.98;;
80193;SDS011;69515;42.072;21.504;2024-01-11T06:20:36;22.95;;;12.13;;
80193;SDS011;69515;42.072;21.504;2024-01-11T06:23:02;21.67;;;11.23;;
80193;SDS011;69515;42.072;21.504;2024-01-11T06:25:29;16.42;;;10.05;;
80193;SDS011;69515;42.072;21.504;2024-01-11T06:27:55;18.00;;;9.77;;
80193;SDS011;69515;42.072;21.504;2024-01-11T06:30:21;18.35;;;9.65;;
80193;SDS011;69515;42.072;21.504;2024-01-11T06:32:47;15.18;;;9.43;;
80193;SDS011;69515;42.072;21.504;2024-01-11T06:35:13;15.70;;;9.23;;
80193;SDS011;69515;42.072;21.504;2024-01-11T06:37:40;17.73;;;9.55;;
80193;SDS011;69515;42.072;21.504;2024-01-11T06:40:06;22.77;;;10.50;;
80193;SDS011;69515;42.072;21.504;2024-01-11T06:42:34;22.58;;;10.68;;
80193;SDS011;69515;42.072;21.504;2024-01-11T06:45:01;20.30;;;10.85;;
80193;SDS011;69515;42.072;21.504;2024-01-11T06:47:28;21.13;;;11.25;;
80193;SDS011;69515;42.072;21.504;2024-01-11T06:49:54;21.33;;;11.30;;
80193;SDS011;69515;42.072;21.504;2024-01-11T06:52:20;19.95;;;12.55;;
80193;SDS011;69515;42.072;21.504;2024-01-11T06:54:47;28.65;;;15.18;;
80193;SDS011;69515;42.072;21.504;2024-01-11T06:57:13;22.10;;;13.02;;
80193;SDS011;69515;42.072;21.504;2024-01-11T06:59:39;22.80;;;12.85;;
80193;SDS011;69515;42.072;21.504;2024-01-11T07:02:05;21.00;;;11.82;;
80193;SDS011;69515;42.072;21.504;2024-01-11T07:04:31;24.23;;;13.23;;
80193;SDS011;69515;42.072;21.504;2024-01-11T07:06:57;25.83;;;13.25;;
80193;SDS011;69515;42.072;21.504;2024-01-11T07:09:24;22.60;;;12.73;;
80193;SDS011;69515;42.072;21.504;2024-01-11T07:14:16;22.55;;;11.65;;
80193;SDS011;69515;42.072;21.504;2024-01-11T07:16:42;18.67;;;11.38;;
80193;SDS011;69515;42.072;21.504;2024-01-11T07:19:08;22.73;;;12.82;;
80193;SDS011;69515;42.072;21.504;2024-01-11T07:21:35;23.95;;;12.65;;
80193;SDS011;69515;42.072;21.504;2024-01-11T07:24:01;22.63;;;12.93;;
80193;SDS011;69515;42.072;21.504;2024-01-11T07:26:27;28.15;;;16.35;;
80193;SDS011;69515;42.072;21.504;2024-01-11T07:28:54;23.67;;;13.20;;
80193;SDS011;69515;42.072;21.504;2024-01-11T07:31:20;24.65;;;13.13;;
80193;SDS011;69515;42.072;21.504;2024-01-11T07:33:46;29.45;;;13.60;;
80193;SDS011;69515;42.072;21.504;2024-01-11T07:36:12;25.70;;;13.40;;
80193;SDS011;69515;42.072;21.504;2024-01-11T07:38:39;23.48;;;13.20;;
80193;SDS011;69515;42.072;21.504;2024-01-11T07:41:05;20.95;;;12.15;;
80193;SDS011;69515;42.072;21.504;2024-01-11T07:43:31;20.67;;;11.45;;
80193;SDS011;69515;42.072;21.504;2024-01-11T07:46:00;19.20;;;11.52;;
80193;SDS011;69515;42.072;21.504;2024-01-11T07:48:27;18.00;;;10.35;;
80193;SDS011;69515;42.072;21.504;2024-01-11T07:50:53;22.33;;;11.73;;
80193;SDS011;69515;42.072;21.504;2024-01-11T07:53:19;19.17;;;10.90;;
80193;SDS011;69515;42.072;21.504;2024-01-11T07:55:46;21.35;;;10.93;;
80193;SDS011;69515;42.072;21.504;2024-01-11T08:00:40;23.65;;;11.13;;
80193;SDS011;69515;42.072;21.504;2024-01-11T08:03:06;21.33;;;11.93;;
80193;SDS011;69515;42.072;21.504;2024-01-11T08:05:33;20.48;;;11.68;;
80193;SDS011;69515;42.072;21.504;2024-01-11T08:10:28;22.70;;;11.05;;
80193;SDS011;69515;42.072;21.504;2024-01-11T08:12:55;20.98;;;11.52;;
80193;SDS011;69515;42.072;21.504;2024-01-11T08:15:22;24.98;;;12.77;;
80193;SDS011;69515;42.072;21.504;2024-01-11T08:17:48;22.65;;;12.38;;
80193;SDS011;69515;42.072;21.504;2024-01-11T08:22:41;23.50;;;14.15;;
80193;SDS011;69515;42.072;21.504;2024-01-11T08:25:08;22.73;;;13.65;;
80193;SDS011;69515;42.072;21.504;2024-01-11T08:27:34;29.25;;;14.10;;
80193;SDS011;69515;42.072;21.504;2024-01-11T08:30:00;26.60;;;14.07;;
80193;SDS011;69515;42.072;21.504;2024-01-11T08:32:27;21.15;;;13.10;;
80193;SDS011;69515;42.072;21.504;2024-01-11T08:34:54;25.63;;;13.55;;
80193;SDS011;69515;42.072;21.504;2024-01-11T08:37:20;24.42;;;13.82;;
80193;SDS011;69515;42.072;21.504;2024-01-11T08:39:46;27.80;;;13.55;;
80193;SDS011;69515;42.072;21.504;2024-01-11T08:42:14;21.92;;;13.27;;
80193;SDS011;69515;42.072;21.504;2024-01-11T08:44:41;25.10;;;13.57;;
80193;SDS011;69515;42.072;21.504;2024-01-11T08:47:07;22.45;;;13.20;;
80193;SDS011;69515;42.072;21.504;2024-01-11T08:49:38;26.55;;;14.90;;
80193;SDS011;69515;42.072;21.504;2024-01-11T08:52:04;27.55;;;15.52;;
80193;SDS011;69515;42.072;21.504;2024-01-11T08:54:31;26.60;;;14.35;;
80193;SDS011;69515;42.072;21.504;2024-01-11T08:57:00;24.95;;;15.27;;
80193;SDS011;69515;42.072;21.504;2024-01-11T08:59:27;26.70;;;14.68;;
80193;SDS011;69515;42.072;21.504;2024-01-11T09:04:19;25.95;;;13.82;;
80193;SDS011;69515;42.072;21.504;2024-01-11T09:06:45;28.52;;;15.30;;
80193;SDS011;69515;42.072;21.504;2024-01-11T09:09:11;22.70;;;14.85;;
80193;SDS011;69515;42.072;21.504;2024-01-11T09:11:39;26.13;;;14.48;;
80193;SDS011;69515;42.072;21.504;2024-01-11T09:14:08;28.55;;;14.80;;
80193;SDS011;69515;42.072;21.504;2024-01-11T09:16:38;87.00;;;39.72;;
80193;SDS011;69515;42.072;21.504;2024-01-11T09:19:05;549.08;;;249.32;;
80193;SDS011;69515;42.072;21.504;2024-01-11T09:23:57;712.55;;;246.27;;
80193;SDS011;69515;42.072;21.504;2024-01-11T09:26:25;826.28;;;308.42;;
80193;SDS011;69515;42.072;21.504;2024-01-11T09:28:51;559.03;;;226.95;;
80193;SDS011;69515;42.072;21.504;2024-01-11T09:31:17;288.50;;;106.60;;
80193;SDS011;69515;42.072;21.504;2024-01-11T09:33:43;299.60;;;108.30;;
80193;SDS011;69515;42.072;21.504;2024-01-11T09:36:10;107.68;;;42.97;;
80193;SDS011;69515;42.072;21.504;2024-01-11T09:41:06;60.38;;;26.98;;
80193;SDS011;69515;42.072;21.504;2024-01-11T09:43:33;35.80;;;19.52;;
80193;SDS011;69515;42.072;21.504;2024-01-11T09:46:03;35.92;;;17.60;;
80193;SDS011;69515;42.072;21.504;2024-01-11T09:48:32;29.80;;;17.23;;
80193;SDS011;69515;42.072;21.504;2024-01-11T09:50:58;26.65;;;15.57;;
80193;SDS011;69515;42.072;21.504;2024-01-11T09:53:25;26.92;;;16.27;;
80193;SDS011;69515;42.072;21.504;2024-01-11T09:55:52;31.25;;;16.63;;
80193;SDS011;69515;42.072;21.504;2024-01-11T09:58:19;28.50;;;17.00;;
80193;SDS011;69515;42.072;21.504;2024-01-11T10:00:46;28.33;;;16.20;;
80193;SDS011;69515;42.072;21.504;2024-01-11T10:03:13;31.55;;;17.98;;
80193;SDS011;69515;42.072;21.504;2024-01-11T10:05:40;28.88;;;17.77;;
80193;SDS011;69515;42.072;21.504;2024-01-11T10:08:06;30.90;;;17.23;;
80193;SDS011;69515;42.072;21.504;2024-01-11T10:10:33;29.58;;;16.63;;
80193;SDS011;69515;42.072;21.504;2024-01-11T10:15:25;29.70;;;17.95;;
80193;SDS011;69515;42.072;21.504;2024-01-11T10:20:17;28.45;;;15.25;;
80193;SDS011;69515;42.072;21.504;2024-01-11T10:22:49;27.88;;;16.33;;
80193;SDS011;69515;42.072;21.504;2024-01-11T10:25:17;28.80;;;16.42;;
80193;SDS011;69515;42.072;21.504;2024-01-11T10:30:10;26.95;;;16.13;;
80193;SDS011;69515;42.072;21.504;2024-01-11T10:32:38;29.95;;;15.63;;
80193;SDS011;69515;42.072;21.504;2024-01-11T10:35:04;33.13;;;17.05;;
80193;SDS011;69515;42.072;21.504;2024-01-11T10:37:31;27.42;;;16.05;;
80193;SDS011;69515;42.072;21.504;2024-01-11T10:39:58;26.45;;;16.85;;
80193;SDS011;69515;42.072;21.504;2024-01-11T10:42:27;26.45;;;15.77;;
80193;SDS011;69515;42.072;21.504;2024-01-11T10:47:19;25.80;;;15.63;;
80193;SDS011;69515;42.072;21.504;2024-01-11T10:49:47;26.58;;;15.77;;
80193;SDS011;69515;42.072;21.504;2024-01-11T10:52:16;27.10;;;15.65;;
80193;SDS011;69515;42.072;21.504;2024-01-11T10:54:45;31.00;;;17.83;;
80193;SDS011;69515;42.072;21.504;2024-01-11T10:57:12;28.83;;;17.13;;
80193;SDS011;69515;42.072;21.504;2024-01-11T10:59:38;30.33;;;16.52;;
80193;SDS011;69515;42.072;21.504;2024-01-11T11:02:06;31.08;;;15.73;;
80193;SDS011;69515;42.072;21.504;2024-01-11T11:04:33;31.42;;;16.95;;
80193;SDS011;69515;42.072;21.504;2024-01-11T11:07:03;28.42;;;16.40;;
80193;SDS011;69515;42.072;21.504;2024-01-11T11:09:32;26.08;;;16.23;;
80193;SDS011;69515;42.072;21.504;2024-01-11T11:12:00;30.27;;;18.23;;
80193;SDS011;69515;42.072;21.504;2024-01-11T11:14:28;32.00;;;17.25;;
80193;SDS011;69515;42.072;21.504;2024-01-11T11:16:57;30.60;;;17.42;;
80193;SDS011;69515;42.072;21.504;2024-01-11T11:19:24;27.58;;;16.88;;
80193;SDS011;69515;42.072;21.504;2024-01-11T11:21:50;25.23;;;16.10;;
80193;SDS011;69515;42.072;21.504;2024-01-11T11:24:17;27.77;;;16.60;;
80193;SDS011;69515;42.072;21.504;2024-01-11T11:26:45;30.58;;;17.83;;
80193;SDS011;69515;42.072;21.504;2024-01-11T11:29:12;31.35;;;17.52;;
80193;SDS011;69515;42.072;21.504;2024-01-11T11:34:04;27.48;;;15.65;;
80193;SDS011;69515;42.072;21.504;2024-01-11T11:36:31;28.45;;;16.75;;
80193;SDS011;69515;42.072;21.504;2024-01-11T11:38:59;27.10;;;16.60;;
80193;SDS011;69515;42.072;21.504;2024-01-11T11:41:32;27.38;;;17.38;;
80193;SDS011;69515;42.072;21.504;2024-01-11T11:44:04;29.33;;;16.67;;
80193;SDS011;69515;42.072;21.504;2024-01-11T11:46:31;30.45;;;17.25;;
80193;SDS011;69515;42.072;21.504;2024-01-11T11:48:58;31.98;;;16.63;;
80193;SDS011;69515;42.072;21.504;2024-01-11T11:51:25;29.35;;;16.33;;
80193;SDS011;69515;42.072;21.504;2024-01-11T11:53:51;30.75;;;17.90;;
80193;SDS011;69515;42.072;21.504;2024-01-11T11:56:19;27.10;;;16.02;;
80193;SDS011;69515;42.072;21.504;2024-01-11T11:58:45;28.38;;;16.65;;
80193;SDS011;69515;42.072;21.504;2024-01-11T12:01:14;29.70;;;15.65;;
80193;SDS011;69515;42.072;21.504;2024-01-11T12:03:42;26.80;;;15.70;;
80193;SDS011;69515;42.072;21.504;2024-01-11T12:06:14;27.00;;;15.95;;
80193;SDS011;69515;42.072;21.504;2024-01-11T12:08:43;29.58;;;15.98;;
80193;SDS011;69515;42.072;21.504;2024-01-11T12:11:12;27.83;;;15.52;;
80193;SDS011;69515;42.072;21.504;2024-01-11T12:13:39;27.98;;;16.52;;
80193;SDS011;69515;42.072;21.504;2024-01-11T12:16:05;27.55;;;16.58;;
80193;SDS011;69515;42.072;21.504;2024-01-11T12:18:32;25.33;;;14.70;;
80193;SDS011;69515;42.072;21.504;2024-01-11T12:20:58;27.95;;;16.50;;
80193;SDS011;69515;42.072;21.504;2024-01-11T12:23:25;29.27;;;15.45;;
80193;SDS011;69515;42.072;21.504;2024-01-11T12:25:55;27.25;;;16.10;;
80193;SDS011;69515;42.072;21.504;2024-01-11T12:28:21;31.77;;;17.80;;
80193;SDS011;69515;42.072;21.504;2024-01-11T12:30:48;29.13;;;16.48;;
80193;SDS011;69515;42.072;21.504;2024-01-11T12:33:14;30.45;;;17.73;;
80193;SDS011;69515;42.072;21.504;2024-01-11T12:35:41;30.20;;;16.42;;
80193;SDS011;69515;42.072;21.504;2024-01-11T12:38:07;29.58;;;16.98;;
80193;SDS011;69515;42.072;21.504;2024-01-11T12:40:36;26.35;;;15.98;;
80193;SDS011;69515;42.072;21.504;2024-01-11T12:43:03;30.77;;;17.17;;
80193;SDS011;69515;42.072;21.504;2024-01-11T12:45:29;30.33;;;18.02;;
80193;SDS011;69515;42.072;21.504;2024-01-11T12:47:57;29.33;;;15.60;;
80193;SDS011;69515;42.072;21.504;2024-01-11T12:50:25;27.52;;;16.33;;
80193;SDS011;69515;42.072;21.504;2024-01-11T12:53:08;28.17;;;16.45;;
80193;SDS011;69515;42.072;21.504;2024-01-11T12:55:35;29.77;;;17.25;;
80193;SDS011;69515;42.072;21.504;2024-01-11T12:58:07;30.95;;;16.58;;
80193;SDS011;69515;42.072;21.504;2024-01-11T13:00:35;29.75;;;17.27;;
80193;SDS011;69515;42.072;21.504;2024-01-11T13:03:02;30.90;;;17.60;;
80193;SDS011;69515;42.072;21.504;2024-01-11T13:05:28;26.30;;;16.15;;
80193;SDS011;69515;42.072;21.504;2024-01-11T13:08:00;26.75;;;16.65;;
80193;SDS011;69515;42.072;21.504;2024-01-11T13:10:27;30.60;;;17.13;;
80193;SDS011;69515;42.072;21.504;2024-01-11T13:12:53;31.70;;;18.25;;
80193;SDS011;69515;42.072;21.504;2024-01-11T13:15:20;29.67;;;17.63;;
80193;SDS011;69515;42.072;21.504;2024-01-11T13:17:47;29.60;;;17.65;;
80193;SDS011;69515;42.072;21.504;2024-01-11T13:20:13;31.40;;;18.70;;
80193;SDS011;69515;42.072;21.504;2024-01-11T13:22:40;31.30;;;16.90;;
80193;SDS011;69515;42.072;21.504;2024-01-11T13:25:07;29.63;;;17.65;;
80193;SDS011;69515;42.072;21.504;2024-01-11T13:27:34;29.92;;;17.75;;
80193;SDS011;69515;42.072;21.504;2024-01-11T13:30:00;34.08;;;18.98;;
80193;SDS011;69515;42.072;21.504;2024-01-11T13:32:26;33.75;;;18.70;;
80193;SDS011;69515;42.072;21.504;2024-01-11T13:34:52;34.20;;;19.45;;
80193;SDS011;69515;42.072;21.504;2024-01-11T13:37:19;31.58;;;18.58;;
80193;SDS011;69515;42.072;21.504;2024-01-11T13:39:45;34.45;;;18.33;;
80193;SDS011;69515;42.072;21.504;2024-01-11T13:42:13;29.20;;;17.73;;
80193;SDS011;69515;42.072;21.504;2024-01-11T13:44:41;32.00;;;19.23;;
80193;SDS011;69515;42.072;21.504;2024-01-11T13:47:07;35.55;;;19.25;;
80193;SDS011;69515;42.072;21.504;2024-01-11T13:49:33;33.50;;;20.13;;
80193;SDS011;69515;42.072;21.504;2024-01-11T13:54:25;29.55;;;17.67;;
80193;SDS011;69515;42.072;21.504;2024-01-11T13:56:52;34.80;;;19.55;;
80193;SDS011;69515;42.072;21.504;2024-01-11T13:59:18;30.98;;;19.20;;
80193;SDS011;69515;42.072;21.504;2024-01-11T14:04:10;32.70;;;17.67;;
80193;SDS011;69515;42.072;21.504;2024-01-11T14:06:37;29.52;;;18.50;;
80193;SDS011;69515;42.072;21.504;2024-01-11T14:09:03;31.67;;;18.83;;
80193;SDS011;69515;42.072;21.504;2024-01-11T14:11:32;32.00;;;19.13;;
80193;SDS011;69515;42.072;21.504;2024-01-11T14:13:58;34.30;;;19.05;;
80193;SDS011;69515;42.072;21.504;2024-01-11T14:16:25;32.90;;;18.50;;
80193;SDS011;69515;42.072;21.504;2024-01-11T14:18:51;36.50;;;20.38;;
80193;SDS011;69515;42.072;21.504;2024-01-11T14:21:17;33.78;;;19.58;;
80193;SDS011;69515;42.072;21.504;2024-01-11T14:23:43;33.47;;;18.13;;
80193;SDS011;69515;42.072;21.504;2024-01-11T14:26:09;36.20;;;20.60;;
80193;SDS011;69515;42.072;21.504;2024-01-11T14:28:36;32.40;;;17.90;;
80193;SDS011;69515;42.072;21.504;2024-01-11T14:31:07;34.88;;;19.83;;
80193;SDS011;69515;42.072;21.504;2024-01-11T14:33:33;36.38;;;20.25;;
80193;SDS011;69515;42.072;21.504;2024-01-11T14:36:01;41.03;;;19.52;;
80193;SDS011;69515;42.072;21.504;2024-01-11T14:38:27;35.15;;;18.77;;
80193;SDS011;69515;42.072;21.504;2024-01-11T14:40:53;33.55;;;19.45;;
80193;SDS011;69515;42.072;21.504;2024-01-11T14:43:19;34.80;;;18.92;;
80193;SDS011;69515;42.072;21.504;2024-01-11T14:45:46;36.00;;;18.83;;
80193;SDS011;69515;42.072;21.504;2024-01-11T14:48:13;33.42;;;19.60;;
80193;SDS011;69515;42.072;21.504;2024-01-11T14:50:39;34.33;;;18.17;;
80193;SDS011;69515;42.072;21.504;2024-01-11T14:53:05;34.78;;;19.30;;
80193;SDS011;69515;42.072;21.504;2024-01-11T14:55:32;33.33;;;19.35;;
80193;SDS011;69515;42.072;21.504;2024-01-11T14:57:58;38.00;;;19.95;;
80193;SDS011;69515;42.072;21.504;2024-01-11T15:00:24;34.28;;;17.58;;
80193;SDS011;69515;42.072;21.504;2024-01-11T15:02:50;33.70;;;20.48;;